Time;durP1;ratioP1;P1;durP2;ratioP2;P2;SDS_P1;SDS_P2;PMS_P1;PMS_P2;Temp;Humidity;BMP_temperature;BMP_pressure;BME280_temperature;BME280_humidity;BME280_pressure;Samples;Min_cycle;Max_cycle;Signal;HPM_P1;HPM_P2
2021/01/06 00:01:44;;;;;;;4.73;4.10;;;5.30;99.90;;;;;;5102538;28;20454;-65
2021/01/06 00:04:11;;;;;;;5.83;4.13;;;5.30;99.90;;;;;;5089125;28;20489;-63
2021/01/06 00:06:39;;;;;;;6.33;4.07;;;5.30;99.90;;;;;;5095230;28;20533;-64
2021/01/06 00:09:07;;;;;;;10.50;4.90;;;5.30;99.90;;;;;;5091206;28;20478;-63
2021/01/06 00:11:38;;;;;;;5.93;3.80;;;5.30;99.90;;;;;;5098401;28;20457;-63
2021/01/06 00:14:06;;;;;;;4.23;3.30;;;5.30;99.90;;;;;;5085940;28;20445;-63
2021/01/06 00:16:33;;;;;;;5.63;3.87;;;5.30;99.90;;;;;;5090608;28;20473;-63
2021/01/06 00:19:00;;;;;;;7.03;4.30;;;5.30;99.90;;;;;;5097992;28;20807;-63
2021/01/06 00:21:26;;;;;;;7.70;3.80;;;5.40;99.90;;;;;;5085459;28;20461;-62
2021/01/06 00:23:54;;;;;;;7.50;3.87;;;5.40;99.90;;;;;;5089068;28;20485;-64
2021/01/06 00:26:21;;;;;;;5.90;3.90;;;5.40;99.90;;;;;;5085177;28;20529;-64
2021/01/06 00:28:47;;;;;;;7.17;4.33;;;5.40;99.90;;;;;;5087632;28;20460;-63
2021/01/06 00:31:14;;;;;;;7.77;4.93;;;5.40;99.90;;;;;;5076698;28;20563;-64
2021/01/06 00:33:41;;;;;;;8.23;4.70;;;5.40;99.90;;;;;;5091015;28;20485;-63
2021/01/06 00:36:13;;;;;;;11.90;5.10;;;5.40;99.90;;;;;;5079087;28;20493;-63
2021/01/06 00:38:41;;;;;;;7.50;5.20;;;5.50;99.90;;;;;;5097017;28;20965;-63
2021/01/06 00:41:09;;;;;;;7.23;4.47;;;5.40;99.90;;;;;;5086116;28;20454;-65
2021/01/06 00:43:36;;;;;;;6.17;4.97;;;5.40;99.90;;;;;;5078043;28;20952;-63
2021/01/06 00:46:04;;;;;;;6.60;5.40;;;5.40;99.90;;;;;;5076704;28;20450;-63
2021/01/06 00:48:31;;;;;;;7.00;4.17;;;5.40;99.90;;;;;;5077280;28;20449;-63
2021/01/06 00:50:58;;;;;;;6.00;3.70;;;5.40;99.90;;;;;;5077187;28;20468;-64
2021/01/06 00:53:26;;;;;;;6.57;3.50;;;5.40;99.90;;;;;;5066087;28;20477;-63
2021/01/06 00:55:54;;;;;;;6.47;3.43;;;5.40;99.90;;;;;;5058096;28;20459;-63
2021/01/06 00:58:23;;;;;;;6.53;2.80;;;5.40;99.90;;;;;;5057561;28;20512;-64
2021/01/06 01:00:49;;;;;;;5.93;3.37;;;5.40;99.90;;;;;;5058231;28;20947;-63
2021/01/06 01:03:16;;;;;;;4.50;3.27;;;5.40;99.90;;;;;;5058047;28;20526;-63
2021/01/06 01:05:45;;;;;;;4.47;2.90;;;5.40;99.90;;;;;;5058709;28;20466;-63
2021/01/06 01:08:12;;;;;;;6.47;3.47;;;5.40;99.90;;;;;;5056828;28;20479;-64
2021/01/06 01:10:40;;;;;;;9.60;3.10;;;5.40;99.90;;;;;;5056970;28;20453;-64
2021/01/06 01:13:09;;;;;;;3.90;3.30;;;5.40;99.90;;;;;;5056233;28;20455;-64
2021/01/06 01:15:39;;;;;;;7.03;3.00;;;5.40;99.90;;;;;;5055898;28;20458;-65
2021/01/06 01:18:08;;;;;;;4.00;2.80;;;5.40;99.90;;;;;;5056732;28;20538;-65
2021/01/06 01:20:34;;;;;;;2.67;2.23;;;5.40;99.90;;;;;;5056100;28;20916;-63
2021/01/06 01:23:01;;;;;;;2.97;2.40;;;5.40;99.90;;;;;;5056485;28;20565;-64
2021/01/06 01:25:28;;;;;;;4.50;2.50;;;5.40;99.90;;;;;;5055936;28;20511;-62
2021/01/06 01:27:55;;;;;;;3.03;2.47;;;5.30;99.90;;;;;;5056479;28;20486;-64
2021/01/06 01:30:24;;;;;;;6.47;3.00;;;5.40;99.90;;;;;;5056350;28;20883;-61
2021/01/06 01:32:51;;;;;;;4.33;3.07;;;5.30;99.90;;;;;;5056068;28;20432;-63
2021/01/06 01:35:20;;;;;;;4.10;2.20;;;5.30;99.90;;;;;;5057281;28;20501;-64
2021/01/06 01:37:48;;;;;;;3.00;1.83;;;5.20;99.90;;;;;;5056771;28;20830;-64
2021/01/06 01:40:21;;;;;;;3.53;2.17;;;5.20;99.90;;;;;;5056024;28;20798;-63
2021/01/06 01:42:52;;;;;;;6.67;2.60;;;5.20;99.90;;;;;;5056717;28;20567;-63
2021/01/06 01:45:19;;;;;;;3.47;2.20;;;5.10;99.90;;;;;;5056214;28;20469;-63
2021/01/06 01:47:54;;;;;;;3.50;2.40;;;5.10;99.90;;;;;;5056257;28;20474;-62
2021/01/06 01:50:22;;;;;;;2.73;1.93;;;5.10;99.90;;;;;;5056405;28;20529;-63
2021/01/06 01:52:52;;;;;;;2.70;2.27;;;5.10;99.90;;;;;;5056249;28;20505;-62
2021/01/06 01:55:20;;;;;;;2.93;1.93;;;5.00;99.90;;;;;;5057017;28;20829;-63
2021/01/06 01:57:51;;;;;;;2.70;1.97;;;5.00;99.90;;;;;;5056932;28;20494;-63
2021/01/06 02:00:20;;;;;;;3.87;1.80;;;5.00;99.90;;;;;;5056742;28;20744;-67
2021/01/06 02:02:57;;;;;;;2.60;1.53;;;5.00;99.90;;;;;;5057043;28;20733;-64
2021/01/06 02:05:30;;;;;;;2.50;1.70;;;5.00;99.90;;;;;;5057337;28;20450;-64
2021/01/06 02:08:02;;;;;;;3.00;1.80;;;5.00;99.90;;;;;;5074975;28;20534;-63
2021/01/06 02:10:32;;;;;;;1.97;1.63;;;5.00;99.90;;;;;;5078493;28;20534;-63
2021/01/06 02:13:03;;;;;;;2.97;1.60;;;5.00;99.90;;;;;;5079820;28;20525;-63
2021/01/06 02:15:39;;;;;;;3.73;1.47;;;5.00;99.90;;;;;;5080311;28;20427;-63
2021/01/06 02:18:07;;;;;;;3.60;1.90;;;4.90;99.90;;;;;;5080528;28;20430;-64
2021/01/06 02:20:34;;;;;;;3.63;2.03;;;4.90;99.90;;;;;;5080527;28;20537;-63
2021/01/06 02:23:02;;;;;;;3.23;1.93;;;4.80;99.90;;;;;;5079975;28;21035;-64
2021/01/06 02:25:30;;;;;;;2.27;2.07;;;4.90;99.90;;;;;;5079546;28;20545;-64
2021/01/06 02:27:58;;;;;;;2.43;1.67;;;4.80;99.90;;;;;;5080110;28;20546;-64
2021/01/06 02:30:25;;;;;;;3.20;1.23;;;4.90;99.90;;;;;;5079793;28;20501;-64
2021/01/06 02:32:52;;;;;;;1.80;1.37;;;4.90;99.90;;;;;;5080393;28;20869;-64
2021/01/06 02:35:20;;;;;;;2.63;1.60;;;4.90;99.90;;;;;;5079453;28;20544;-64
2021/01/06 02:37:47;;;;;;;2.90;2.00;;;4.90;99.90;;;;;;5070690;28;20879;-64
2021/01/06 02:40:17;;;;;;;2.27;1.40;;;4.90;99.90;;;;;;5059377;28;20526;-64
2021/01/06 02:42:44;;;;;;;1.90;1.63;;;4.90;99.90;;;;;;5058960;28;20475;-64
2021/01/06 02:45:13;;;;;;;2.20;1.50;;;4.90;99.90;;;;;;5059791;28;20439;-64
2021/01/06 02:47:41;;;;;;;3.77;1.50;;;4.90;99.90;;;;;;5058676;28;20499;-63
2021/01/06 02:50:12;;;;;;;1.87;1.37;;;4.90;99.90;;;;;;5059803;28;20606;-64
2021/01/06 02:52:43;;;;;;;1.70;1.00;;;4.90;99.90;;;;;;5060394;28;20852;-64
2021/01/06 02:55:12;;;;;;;1.90;1.40;;;4.80;99.90;;;;;;5060326;28;20511;-63
2021/01/06 02:57:40;;;;;;;1.90;1.00;;;4.80;99.90;;;;;;5062958;28;20483;-64
2021/01/06 03:00:08;;;;;;;2.03;1.40;;;4.70;99.90;;;;;;5060328;28;20515;-62
2021/01/06 03:02:34;;;;;;;2.80;1.30;;;4.70;99.90;;;;;;5059697;28;20531;-63
2021/01/06 03:05:06;;;;;;;2.67;1.70;;;4.60;99.90;;;;;;5058802;28;20930;-63
2021/01/06 03:07:34;;;;;;;2.67;1.50;;;4.60;99.90;;;;;;5059267;28;20921;-63
2021/01/06 03:10:00;;;;;;;2.60;1.80;;;4.60;99.90;;;;;;5059078;28;20458;-63
2021/01/06 03:12:30;;;;;;;2.20;1.37;;;4.60;99.90;;;;;;5059754;28;20467;-63
2021/01/06 03:14:59;;;;;;;2.57;1.30;;;4.60;99.90;;;;;;5059661;28;20870;-63
2021/01/06 03:17:26;;;;;;;2.00;1.20;;;4.70;99.90;;;;;;5059169;28;20484;-63
2021/01/06 03:19:56;;;;;;;2.10;1.30;;;4.70;99.90;;;;;;5058722;28;20523;-63
2021/01/06 03:22:25;;;;;;;2.57;1.20;;;4.70;99.90;;;;;;5059727;28;20443;-63
2021/01/06 03:24:57;;;;;;;1.80;1.30;;;4.70;99.90;;;;;;5059014;28;20479;-63
2021/01/06 03:27:24;;;;;;;3.07;1.43;;;4.70;99.90;;;;;;5058921;28;20937;-63
2021/01/06 03:29:52;;;;;;;1.67;1.23;;;4.70;99.90;;;;;;5058686;28;20530;-63
2021/01/06 03:32:27;;;;;;;2.53;1.13;;;4.80;99.90;;;;;;5058164;28;20520;-63
2021/01/06 03:35:01;;;;;;;2.00;1.37;;;4.80;99.90;;;;;;5058513;28;20506;-63
2021/01/06 03:37:33;;;;;;;1.60;1.13;;;4.70;99.90;;;;;;5058647;28;20447;-64
2021/01/06 03:40:08;;;;;;;1.40;1.10;;;4.70;99.90;;;;;;5058463;28;20898;-63
2021/01/06 03:42:35;;;;;;;1.63;0.97;;;4.70;99.90;;;;;;5058788;28;20536;-64
2021/01/06 03:45:04;;;;;;;1.50;1.10;;;4.70;99.90;;;;;;5059090;28;20455;-63
2021/01/06 03:47:37;;;;;;;1.43;1.03;;;4.80;99.90;;;;;;5059159;28;20455;-63
2021/01/06 03:50:11;;;;;;;1.10;0.80;;;4.80;99.90;;;;;;5059195;28;20473;-63
2021/01/06 03:52:47;;;;;;;1.40;1.10;;;4.60;99.90;;;;;;5059327;28;20825;-63
2021/01/06 03:55:23;;;;;;;1.57;1.30;;;4.60;99.90;;;;;;5058403;28;20503;-64
2021/01/06 03:57:52;;;;;;;1.77;1.43;;;4.60;99.90;;;;;;5058962;28;20517;-64
2021/01/06 04:00:47;;;;;;;1.67;1.10;;;4.70;99.90;;;;;;5058509;28;20763;-63
2021/01/06 04:03:24;;;;;;;1.50;1.10;;;4.70;99.90;;;;;;5057929;28;20570;-63
2021/01/06 04:05:51;;;;;;;2.43;1.47;;;4.70;99.90;;;;;;5058240;28;20895;-63
2021/01/06 04:08:28;;;;;;;1.00;0.80;;;4.70;99.90;;;;;;5058458;28;20485;-63
2021/01/06 04:10:57;;;;;;;1.20;0.93;;;4.70;99.90;;;;;;5058030;28;20830;-63
2021/01/06 04:13:24;;;;;;;1.97;1.10;;;4.70;99.90;;;;;;5058350;28;20952;-63
2021/01/06 04:15:50;;;;;;;3.13;1.07;;;4.60;99.90;;;;;;5058728;28;20537;-63
2021/01/06 04:18:18;;;;;;;1.77;1.10;;;4.60;99.90;;;;;;5057456;28;20507;-63
2021/01/06 04:20:45;;;;;;;1.83;1.10;;;4.60;99.90;;;;;;5057213;28;20822;-65
2021/01/06 04:23:13;;;;;;;1.57;1.10;;;4.60;99.90;;;;;;5058089;28;20977;-63
2021/01/06 04:25:41;;;;;;;1.60;1.00;;;4.60;99.90;;;;;;5057452;28;20534;-64
2021/01/06 04:28:12;;;;;;;1.40;1.13;;;4.60;99.90;;;;;;5057967;28;20459;-64
2021/01/06 04:30:40;;;;;;;1.70;1.23;;;4.60;99.90;;;;;;5091789;23;20501;-64
2021/01/06 04:33:09;;;;;;;1.53;1.30;;;4.50;99.90;;;;;;5082215;23;20528;-64
2021/01/06 04:35:37;;;;;;;2.40;0.83;;;4.50;99.90;;;;;;5078764;28;20448;-63
2021/01/06 04:38:04;;;;;;;1.30;1.00;;;4.60;99.90;;;;;;5077297;28;20482;-63
2021/01/06 04:40:36;;;;;;;1.83;1.00;;;4.50;99.90;;;;;;5077188;28;20476;-63
2021/01/06 04:43:13;;;;;;;1.53;1.00;;;4.50;99.90;;;;;;5077770;28;20539;-63
2021/01/06 04:45:44;;;;;;;1.47;0.97;;;4.50;99.90;;;;;;5077819;28;20469;-64
2021/01/06 04:48:35;;;;;;;1.30;0.80;;;4.40;99.90;;;;;;5077425;28;20485;-64
2021/01/06 04:51:33;;;;;;;1.20;0.80;;;4.40;99.90;;;;;;5077953;28;20464;-68
2021/01/06 04:54:24;;;;;;;1.20;0.80;;;4.40;99.90;;;;;;5077838;28;20411;-64
2021/01/06 04:57:00;;;;;;;2.03;0.70;;;4.40;99.90;;;;;;5077610;28;20452;-64
2021/01/06 04:59:43;;;;;;;2.50;0.73;;;4.40;99.90;;;;;;5077580;28;20944;-64
2021/01/06 05:02:33;;;;;;;1.17;0.80;;;4.40;99.90;;;;;;5076949;28;20477;-64
2021/01/06 05:05:20;;;;;;;1.00;0.60;;;4.30;99.90;;;;;;5077167;28;20565;-64
2021/01/06 05:08:05;;;;;;;1.10;0.87;;;4.30;99.90;;;;;;5077483;28;20430;-64
2021/01/06 05:10:35;;;;;;;1.03;0.83;;;4.30;99.90;;;;;;5078127;28;20813;-64
2021/01/06 05:13:12;;;;;;;0.97;0.67;;;4.30;99.90;;;;;;5075400;28;20847;-64
2021/01/06 05:15:43;;;;;;;1.40;0.70;;;4.20;99.90;;;;;;5058960;28;20447;-63
2021/01/06 05:18:11;;;;;;;1.30;0.80;;;4.20;99.90;;;;;;5057200;28;20454;-64
2021/01/06 05:20:38;;;;;;;1.13;0.70;;;4.20;99.90;;;;;;5056892;28;20459;-64
2021/01/06 05:23:09;;;;;;;1.00;0.87;;;4.30;99.90;;;;;;5057059;28;20894;-64
2021/01/06 05:25:37;;;;;;;0.90;0.73;;;4.20;99.90;;;;;;5056795;28;20841;-64
2021/01/06 05:28:05;;;;;;;1.10;0.80;;;4.20;99.90;;;;;;5056819;28;20536;-64
2021/01/06 05:30:35;;;;;;;1.00;0.77;;;4.20;99.90;;;;;;5056579;28;20497;-63
2021/01/06 05:33:05;;;;;;;1.20;0.80;;;4.30;99.90;;;;;;5056988;28;20848;-66
2021/01/06 05:35:38;;;;;;;1.20;0.93;;;4.30;99.90;;;;;;5058869;28;20900;-64
2021/01/06 05:38:05;;;;;;;1.93;0.90;;;4.30;99.90;;;;;;5058152;28;20454;-64
2021/01/06 05:40:34;;;;;;;1.17;0.90;;;4.30;99.90;;;;;;5056757;28;20465;-64
2021/01/06 05:43:04;;;;;;;1.10;0.80;;;4.20;99.90;;;;;;5057538;28;21072;-64
2021/01/06 05:45:39;;;;;;;4.57;3.00;;;4.20;99.90;;;;;;5061220;28;20451;-64
2021/01/06 05:48:15;;;;;;;4.60;1.90;;;4.20;99.90;;;;;;5061456;28;20453;-64
2021/01/06 05:50:44;;;;;;;1.53;1.37;;;4.20;99.90;;;;;;5060912;28;20592;-64
2021/01/06 05:53:20;;;;;;;1.73;1.47;;;4.20;99.90;;;;;;5060962;28;20522;-64
2021/01/06 05:55:49;;;;;;;2.23;1.57;;;4.20;99.90;;;;;;5061175;28;20544;-64
2021/01/06 05:58:21;;;;;;;2.10;1.20;;;4.10;99.90;;;;;;5061582;28;20494;-64
2021/01/06 06:00:55;;;;;;;2.03;1.23;;;4.10;99.90;;;;;;5061555;28;20453;-64
2021/01/06 06:03:37;;;;;;;2.10;1.47;;;4.10;99.90;;;;;;5061238;28;20474;-64
2021/01/06 06:06:20;;;;;;;3.53;1.20;;;4.00;99.90;;;;;;5060818;28;20526;-62
2021/01/06 06:08:52;;;;;;;1.33;1.23;;;4.10;99.90;;;;;;5060602;28;20403;-64
2021/01/06 06:11:59;;;;;;;1.97;1.63;;;4.10;99.90;;;;;;5061000;28;20854;-64
2021/01/06 06:15:13;;;;;;;2.53;2.33;;;4.00;99.90;;;;;;5063149;28;20494;-64
2021/01/06 06:17:53;;;;;;;2.50;2.30;;;4.00;99.90;;;;;;5063521;28;20517;-63
2021/01/06 06:20:40;;;;;;;2.97;2.67;;;4.00;99.90;;;;;;5062411;28;20490;-64
2021/01/06 06:23:32;;;;;;;2.80;2.07;;;4.00;99.90;;;;;;5060120;28;20618;-63
2021/01/06 06:26:09;;;;;;;1.90;1.30;;;3.90;99.90;;;;;;5061015;28;20431;-63
2021/01/06 06:28:42;;;;;;;4.43;2.00;;;3.90;99.90;;;;;;5060471;28;20665;-63
2021/01/06 06:31:28;;;;;;;3.10;2.47;;;3.90;99.90;;;;;;5060212;28;20435;-62
2021/01/06 06:33:56;;;;;;;1.90;1.73;;;3.90;99.90;;;;;;5060089;28;20925;-63
2021/01/06 06:36:25;;;;;;;2.17;1.63;;;3.90;99.90;;;;;;5059764;28;20479;-63
2021/01/06 06:38:52;;;;;;;2.47;1.60;;;3.90;99.90;;;;;;5060537;28;20443;-63
2021/01/06 06:41:30;;;;;;;3.30;2.00;;;3.90;99.90;;;;;;5059581;28;21177;-63
2021/01/06 06:44:22;;;;;;;2.77;1.80;;;3.90;99.90;;;;;;5055986;28;20543;-63
2021/01/06 06:47:12;;;;;;;2.97;2.40;;;3.70;99.90;;;;;;5059595;28;20494;-62
2021/01/06 06:50:06;;;;;;;2.57;1.53;;;3.70;99.90;;;;;;5059970;28;20802;-63
2021/01/06 06:52:39;;;;;;;2.07;1.80;;;3.80;99.90;;;;;;5059318;28;20483;-63
2021/01/06 06:55:30;;;;;;;2.30;1.60;;;3.80;99.90;;;;;;5059044;28;20498;-63
2021/01/06 06:58:20;;;;;;;4.47;1.50;;;3.80;99.90;;;;;;5059661;28;20484;-63
2021/01/06 07:00:47;;;;;;;2.17;1.50;;;3.80;99.90;;;;;;5060658;28;20463;-63
2021/01/06 07:03:15;;;;;;;2.13;1.83;;;3.80;99.90;;;;;;5059521;28;20988;-63
2021/01/06 07:05:47;;;;;;;2.80;1.57;;;3.70;99.90;;;;;;5063054;28;20479;-62
2021/01/06 07:08:22;;;;;;;2.17;1.60;;;3.70;99.90;;;;;;5062468;28;20435;-63
2021/01/06 07:10:58;;;;;;;2.70;1.87;;;3.70;99.90;;;;;;5063241;28;20530;-63
2021/01/06 07:13:26;;;;;;;2.53;1.80;;;3.70;99.90;;;;;;5062762;28;20519;-63
2021/01/06 07:15:55;;;;;;;3.40;1.50;;;3.80;99.90;;;;;;5063148;28;20577;-63
2021/01/06 07:18:40;;;;;;;2.30;1.50;;;3.80;99.90;;;;;;5062445;28;20945;-63
2021/01/06 07:21:28;;;;;;;3.37;1.83;;;3.80;99.90;;;;;;5060931;28;20455;-63
2021/01/06 07:24:04;;;;;;;1.80;1.70;;;3.80;99.90;;;;;;5062971;28;20503;-63
2021/01/06 07:26:33;;;;;;;4.63;2.57;;;3.80;99.90;;;;;;5062994;28;20451;-63
2021/01/06 07:29:03;;;;;;;2.50;2.30;;;3.80;99.90;;;;;;5063207;28;20455;-63
2021/01/06 07:31:36;;;;;;;3.23;2.60;;;3.70;99.90;;;;;;5062794;28;20475;-63
2021/01/06 07:34:06;;;;;;;3.87;3.07;;;3.80;99.90;;;;;;5062989;28;20435;-63
2021/01/06 07:36:34;;;;;;;4.57;2.90;;;3.70;99.90;;;;;;5063056;28;20949;-62
2021/01/06 07:39:02;;;;;;;2.63;2.07;;;3.70;99.90;;;;;;5063072;28;20467;-62
2021/01/06 07:41:29;;;;;;;3.30;2.73;;;3.70;99.90;;;;;;5062857;28;20534;-63
2021/01/06 07:44:04;;;;;;;4.67;2.63;;;3.70;99.90;;;;;;5062796;28;20479;-62
2021/01/06 07:46:45;;;;;;;2.87;2.67;;;3.70;99.90;;;;;;5062238;28;20447;-63
2021/01/06 07:49:27;;;;;;;2.93;2.47;;;3.70;99.90;;;;;;5062468;28;20898;-63
2021/01/06 07:51:58;;;;;;;2.50;2.20;;;3.70;99.90;;;;;;5062215;28;20442;-63
2021/01/06 07:54:35;;;;;;;1.80;1.50;;;3.70;99.90;;;;;;5062246;28;20435;-63
2021/01/06 07:57:11;;;;;;;1.67;1.30;;;3.70;99.90;;;;;;5063142;28;20474;-64
2021/01/06 07:59:52;;;;;;;2.13;1.33;;;3.60;99.90;;;;;;5062663;28;20438;-63
2021/01/06 08:02:25;;;;;;;1.87;1.40;;;3.50;99.90;;;;;;5062996;28;20857;-63
2021/01/06 08:05:15;;;;;;;2.67;2.07;;;3.60;99.90;;;;;;5063204;28;20463;-62
2021/01/06 08:07:42;;;;;;;3.13;2.03;;;3.50;99.90;;;;;;5063798;28;20861;-63
2021/01/06 08:10:24;;;;;;;2.90;2.03;;;3.40;99.90;;;;;;5062791;28;20475;-64
2021/01/06 08:12:51;;;;;;;2.53;1.77;;;3.50;99.90;;;;;;5062957;28;20450;-63
2021/01/06 08:15:25;;;;;;;2.80;2.30;;;3.50;99.90;;;;;;5062465;28;20435;-63
2021/01/06 08:17:57;;;;;;;4.17;2.33;;;3.40;99.90;;;;;;5065684;28;20474;-63
2021/01/06 08:20:28;;;;;;;2.13;1.87;;;3.40;99.90;;;;;;5069660;28;20432;-63
2021/01/06 08:23:01;;;;;;;3.10;1.70;;;3.40;99.90;;;;;;5069343;28;20534;-64
2021/01/06 08:25:31;;;;;;;2.70;2.00;;;3.50;99.90;;;;;;5068782;28;20482;-65
2021/01/06 08:27:58;;;;;;;2.03;1.57;;;3.50;99.90;;;;;;5068282;28;20461;-64
2021/01/06 08:30:28;;;;;;;2.07;1.87;;;3.50;99.90;;;;;;5067882;28;20432;-64
2021/01/06 08:33:07;;;;;;;2.30;1.37;;;3.60;99.90;;;;;;5066314;28;20467;-63
2021/01/06 08:35:37;;;;;;;1.73;1.27;;;3.60;99.90;;;;;;5068021;28;20467;-63
2021/01/06 08:38:22;;;;;;;1.20;1.10;;;3.60;99.90;;;;;;5070369;28;20444;-63
2021/01/06 08:40:49;;;;;;;3.10;2.17;;;3.60;99.90;;;;;;5071396;28;20439;-63
2021/01/06 08:43:15;;;;;;;2.07;1.37;;;3.60;99.90;;;;;;5071575;28;20455;-63
2021/01/06 08:45:53;;;;;;;1.47;1.20;;;3.60;99.90;;;;;;5090273;28;20430;-64
2021/01/06 08:48:30;;;;;;;2.03;1.30;;;3.60;99.90;;;;;;5090634;28;20454;-62
2021/01/06 08:51:05;;;;;;;2.57;1.47;;;3.60;99.90;;;;;;5082506;28;20451;-63
2021/01/06 08:53:34;;;;;;;1.70;1.17;;;3.60;99.90;;;;;;5079172;28;20438;-62
2021/01/06 08:56:04;;;;;;;2.50;1.63;;;3.60;99.90;;;;;;5089923;28;20931;-63
2021/01/06 08:58:45;;;;;;;5.40;1.30;;;3.60;99.90;;;;;;5072934;28;20431;-62
2021/01/06 09:01:34;;;;;;;1.70;1.30;;;3.60;99.90;;;;;;5069829;28;20443;-63
2021/01/06 09:04:08;;;;;;;1.20;0.90;;;3.60;99.90;;;;;;5070011;28;20493;-63
2021/01/06 09:06:46;;;;;;;1.60;1.20;;;3.60;99.90;;;;;;5069965;28;20465;-63
2021/01/06 09:09:38;;;;;;;1.47;1.00;;;3.60;99.90;;;;;;5063110;28;20497;-63
2021/01/06 09:12:24;;;;;;;1.70;1.10;;;3.50;99.90;;;;;;5061086;28;20459;-62
2021/01/06 09:14:54;;;;;;;2.30;1.57;;;3.50;99.90;;;;;;5071107;28;20435;-62
2021/01/06 09:17:41;;;;;;;2.07;1.23;;;3.50;99.90;;;;;;5069145;28;20481;-63
2021/01/06 09:20:14;;;;;;;1.67;1.20;;;3.60;99.90;;;;;;5068852;28;20477;-63
2021/01/06 09:22:40;;;;;;;3.10;1.13;;;3.60;99.90;;;;;;5068230;28;20451;-63
2021/01/06 09:25:08;;;;;;;1.97;1.40;;;3.70;99.90;;;;;;5067595;28;20514;-62
2021/01/06 09:27:39;;;;;;;3.30;2.90;;;3.80;99.90;;;;;;5085669;28;20468;-62
2021/01/06 09:30:18;;;;;;;2.43;1.57;;;3.80;99.90;;;;;;5088179;28;20450;-62
2021/01/06 09:32:48;;;;;;;1.33;1.13;;;3.90;99.90;;;;;;5088024;28;20470;-62
2021/01/06 09:35:17;;;;;;;1.40;1.10;;;4.00;99.90;;;;;;5087358;28;20443;-61
2021/01/06 09:37:53;;;;;;;1.83;1.30;;;4.20;99.90;;;;;;5092740;28;20444;-65
2021/01/06 09:40:21;;;;;;;2.90;1.13;;;4.20;99.90;;;;;;5092543;28;20540;-64
2021/01/06 09:42:54;;;;;;;2.10;1.13;;;4.20;99.90;;;;;;5093760;28;20953;-63
2021/01/06 09:45:24;;;;;;;2.73;1.60;;;4.20;99.90;;;;;;5101006;28;20477;-63
2021/01/06 09:47:55;;;;;;;6.53;1.50;;;4.10;99.90;;;;;;5089748;28;20453;-62
2021/01/06 09:50:26;;;;;;;1.90;1.30;;;4.20;99.90;;;;;;5096291;28;20457;-62
2021/01/06 09:52:55;;;;;;;1.90;1.10;;;4.20;99.90;;;;;;5090354;28;20748;-66
2021/01/06 09:55:25;;;;;;;1.20;0.80;;;4.20;99.90;;;;;;5093727;28;20437;-64
2021/01/06 09:58:02;;;;;;;1.87;1.43;;;4.20;99.90;;;;;;5089014;28;20458;-66
2021/01/06 10:00:39;;;;;;;2.13;1.07;;;4.20;99.90;;;;;;5080258;28;20495;-66
2021/01/06 10:03:07;;;;;;;3.60;0.90;;;4.20;99.90;;;;;;5084283;28;20476;-60
2021/01/06 10:05:59;;;;;;;2.37;1.43;;;4.20;99.90;;;;;;5088591;28;20434;-61
2021/01/06 10:08:34;;;;;;;1.47;1.23;;;4.20;99.90;;;;;;5087204;28;20517;-60
2021/01/06 10:11:10;;;;;;;4.40;0.90;;;4.20;99.90;;;;;;5080039;28;20803;-61
2021/01/06 10:14:10;;;;;;;1.30;0.93;;;4.30;99.90;;;;;;5077674;28;20765;-61
2021/01/06 10:16:44;;;;;;;2.20;1.57;;;4.20;99.90;;;;;;5088322;28;20438;-60
2021/01/06 10:19:36;;;;;;;2.40;1.60;;;4.30;99.90;;;;;;5087536;28;20463;-61
2021/01/06 10:22:14;;;;;;;2.73;1.33;;;4.30;99.90;;;;;;5083661;28;20442;-61
2021/01/06 10:25:15;;;;;;;2.97;1.53;;;4.20;99.90;;;;;;5084021;28;20481;-60
2021/01/06 10:27:58;;;;;;;1.47;1.07;;;4.20;99.90;;;;;;5082715;28;20474;-59
2021/01/06 10:30:27;;;;;;;1.37;0.93;;;4.10;99.90;;;;;;5081249;28;20888;-61
2021/01/06 10:33:09;;;;;;;2.47;1.50;;;4.10;99.90;;;;;;5090528;28;20481;-61
2021/01/06 10:35:47;;;;;;;1.33;1.07;;;4.20;99.90;;;;;;5084729;28;20461;-62
2021/01/06 10:38:27;;;;;;;2.27;1.60;;;4.20;99.90;;;;;;5081589;28;20843;-61
2021/01/06 10:41:09;;;;;;;1.17;1.00;;;4.20;99.90;;;;;;5078500;28;20505;-59
2021/01/06 10:43:46;;;;;;;1.30;0.83;;;4.10;99.90;;;;;;5088959;28;20561;-60
2021/01/06 10:46:39;;;;;;;1.40;0.90;;;4.10;99.90;;;;;;5091107;28;20531;-62
2021/01/06 10:49:12;;;;;;;4.17;1.00;;;4.20;99.90;;;;;;5084807;28;20457;-62
2021/01/06 10:52:02;;;;;;;1.70;1.20;;;4.10;99.90;;;;;;5083102;28;20453;-62
2021/01/06 10:54:36;;;;;;;1.47;1.13;;;4.10;99.90;;;;;;5084086;28;20435;-62
2021/01/06 10:57:19;;;;;;;1.50;1.10;;;4.00;99.90;;;;;;5087328;28;20516;-62
2021/01/06 11:00:21;;;;;;;2.80;1.43;;;4.10;99.90;;;;;;5087891;28;20442;-63
2021/01/06 11:03:21;;;;;;;1.37;0.90;;;4.10;99.90;;;;;;5085238;28;20459;-62
2021/01/06 11:06:06;;;;;;;1.10;0.80;;;4.00;99.90;;;;;;5086122;28;21200;-61
2021/01/06 11:09:06;;;;;;;2.13;1.00;;;3.90;99.90;;;;;;5089802;28;20528;-62
2021/01/06 11:12:03;;;;;;;1.27;1.00;;;3.90;99.90;;;;;;5066144;28;20462;-62
2021/01/06 11:15:11;;;;;;;2.07;1.10;;;3.90;99.90;;;;;;5082187;28;20521;-60
2021/01/06 11:17:39;;;;;;;1.90;1.10;;;4.00;99.90;;;;;;5093552;28;20437;-60
2021/01/06 11:20:26;;;;;;;4.77;2.77;;;3.90;99.90;;;;;;5085361;28;20477;-61
2021/01/06 11:23:34;;;;;;;7.03;3.07;;;4.00;99.90;;;;;;5090153;28;20466;-61
2021/01/06 11:26:49;;;;;;;1.10;0.93;;;4.00;99.90;;;;;;5093889;28;20522;-61
2021/01/06 11:29:46;;;;;;;1.10;1.00;;;4.10;99.90;;;;;;5081585;28;20469;-61
2021/01/06 11:32:38;;;;;;;2.37;1.23;;;4.10;99.90;;;;;;5075934;28;20994;-62
2021/01/06 11:35:31;;;;;;;1.20;0.80;;;4.10;99.90;;;;;;5083176;28;20772;-64
2021/01/06 11:38:00;;;;;;;1.63;0.90;;;4.20;99.90;;;;;;5097264;28;20479;-59
2021/01/06 11:40:50;;;;;;;1.90;1.40;;;4.10;99.90;;;;;;5091755;28;20445;-61
2021/01/06 11:43:53;;;;;;;1.30;1.20;;;4.10;99.90;;;;;;5087929;28;20450;-61
2021/01/06 11:47:00;;;;;;;1.30;1.20;;;4.20;99.90;;;;;;5077805;28;20552;-61
2021/01/06 11:49:32;;;;;;;4.10;1.27;;;4.20;99.90;;;;;;5079549;28;20474;-61
2021/01/06 11:52:21;;;;;;;1.70;1.60;;;4.20;99.90;;;;;;5089038;28;20472;-61
2021/01/06 11:54:52;;;;;;;2.53;1.40;;;4.10;99.90;;;;;;5083804;28;20441;-62
2021/01/06 11:57:26;;;;;;;1.67;1.57;;;4.10;99.90;;;;;;5094406;28;20484;-62
2021/01/06 12:00:06;;;;;;;2.20;1.43;;;4.10;99.90;;;;;;5079805;28;20441;-63
2021/01/06 12:02:41;;;;;;;1.83;1.27;;;4.00;99.90;;;;;;5087464;28;20427;-61
2021/01/06 12:05:18;;;;;;;1.10;1.00;;;4.00;99.90;;;;;;5094413;28;20477;-61
2021/01/06 12:08:14;;;;;;;1.97;1.00;;;4.00;99.90;;;;;;5084967;28;20434;-60
2021/01/06 12:10:56;;;;;;;2.50;1.20;;;4.00;99.90;;;;;;5078946;28;20442;-61
2021/01/06 12:13:32;;;;;;;1.40;1.10;;;3.90;99.90;;;;;;5095567;28;20460;-61
2021/01/06 12:16:11;;;;;;;1.47;1.17;;;3.80;99.90;;;;;;5083112;28;20538;-61
2021/01/06 12:19:19;;;;;;;1.50;0.90;;;3.80;99.90;;;;;;5096759;28;20441;-61
2021/01/06 12:21:55;;;;;;;1.63;1.10;;;3.80;99.90;;;;;;5090904;28;20487;-60
2021/01/06 12:24:38;;;;;;;1.60;1.40;;;3.80;99.90;;;;;;5085001;28;20466;-60
2021/01/06 12:27:45;;;;;;;2.70;1.53;;;3.80;99.90;;;;;;5078617;28;20493;-61
2021/01/06 12:30:50;;;;;;;1.40;1.13;;;3.80;99.90;;;;;;5075696;28;20462;-61
2021/01/06 12:33:35;;;;;;;1.23;0.93;;;3.80;99.90;;;;;;5093186;28;20470;-63
2021/01/06 12:36:30;;;;;;;1.43;1.07;;;3.80;99.90;;;;;;5087206;28;21050;-60
2021/01/06 12:39:26;;;;;;;1.40;1.10;;;3.70;99.90;;;;;;5097501;28;20445;-61
2021/01/06 12:42:00;;;;;;;2.10;1.40;;;3.70;99.90;;;;;;5090226;28;20445;-59
2021/01/06 12:44:30;;;;;;;1.57;1.27;;;3.70;99.90;;;;;;5086702;28;20500;-61
2021/01/06 12:47:01;;;;;;;2.90;1.27;;;3.70;99.90;;;;;;5092737;28;20442;-59
2021/01/06 12:49:48;;;;;;;1.53;1.13;;;3.80;99.90;;;;;;5107070;28;20446;-61
2021/01/06 12:52:37;;;;;;;1.57;1.00;;;3.80;99.90;;;;;;5099691;28;20452;-61
2021/01/06 12:55:10;;;;;;;1.63;1.30;;;3.90;99.90;;;;;;5088338;28;20487;-61
2021/01/06 12:57:49;;;;;;;2.33;1.10;;;3.80;99.90;;;;;;5099254;28;20463;-62
2021/01/06 13:00:33;;;;;;;2.77;1.80;;;3.70;99.90;;;;;;5079862;28;20431;-61
2021/01/06 13:03:32;;;;;;;1.70;1.40;;;3.70;99.90;;;;;;5095627;28;20461;-62
2021/01/06 13:06:11;;;;;;;1.73;1.63;;;3.80;99.90;;;;;;5075428;28;20446;-60
2021/01/06 13:08:52;;;;;;;1.50;1.20;;;3.80;99.90;;;;;;5083810;28;20890;-61
2021/01/06 13:11:27;;;;;;;1.80;1.30;;;3.80;99.90;;;;;;5083788;28;20446;-61
2021/01/06 13:14:14;;;;;;;1.90;1.30;;;3.90;99.90;;;;;;5090798;28;20433;-61
2021/01/06 13:16:51;;;;;;;1.60;1.20;;;3.90;99.90;;;;;;5089174;28;20510;-62
2021/01/06 13:19:30;;;;;;;3.83;1.30;;;3.80;99.90;;;;;;5073961;28;20458;-61
2021/01/06 13:22:17;;;;;;;1.70;1.30;;;3.90;99.90;;;;;;5088849;28;20441;-60
2021/01/06 13:24:50;;;;;;;4.13;1.30;;;3.80;99.90;;;;;;5093160;28;20511;-62
2021/01/06 13:27:38;;;;;;;1.67;1.30;;;3.80;99.90;;;;;;5094961;28;20548;-61
2021/01/06 13:30:19;;;;;;;2.07;1.40;;;3.80;99.90;;;;;;5083197;28;20446;-58
2021/01/06 13:32:52;;;;;;;1.10;0.80;;;3.80;99.90;;;;;;5081985;28;20474;-62
2021/01/06 13:35:24;;;;;;;1.50;1.23;;;3.90;99.90;;;;;;5100530;28;20462;-63
2021/01/06 13:38:11;;;;;;;1.70;1.13;;;3.80;99.90;;;;;;5101205;28;20438;-63
2021/01/06 13:40:42;;;;;;;1.37;1.20;;;3.80;99.90;;;;;;5087901;28;20438;-64
2021/01/06 13:43:23;;;;;;;2.63;2.27;;;3.70;99.90;;;;;;5089908;28;20510;-62